Time;durP1;ratioP1;P1;durP2;ratioP2;P2;SDS_P1;SDS_P2;PMS_P1;PMS_P2;Temp;Humidity;BMP_temperature;BMP_pressure;BME280_temperature;BME280_humidity;BME280_pressure;Samples;Min_cycle;Max_cycle;Signal;HPM_P1;HPM_P2
2022/09/07 00:00:10;;;;;;;26.67;6.05;;;;;;;23.43;56.15;100131.44;5052335;28;20029;-80
2022/09/07 00:02:35;;;;;;;26.63;5.05;;;;;;;23.47;56.17;100126.59;5052342;28;20139;-79
2022/09/07 00:05:01;;;;;;;29.92;5.97;;;;;;;23.40;56.17;100132.25;5051909;28;20419;-80
2022/09/07 00:07:26;;;;;;;26.23;6.25;;;;;;;23.44;55.56;100119.84;5052371;28;20476;-80
2022/09/07 00:09:52;;;;;;;20.88;5.20;;;;;;;23.38;56.15;100117.94;5052456;28;20021;-80
2022/09/07 00:12:18;;;;;;;25.38;4.57;;;;;;;23.30;56.29;100114.44;5052467;28;20060;-80
2022/09/07 00:14:43;;;;;;;31.23;5.57;;;;;;;23.26;56.43;100111.66;5052144;28;20369;-79
2022/09/07 00:17:09;;;;;;;28.52;5.90;;;;;;;23.39;55.95;100100.00;5050951;28;20033;-79
2022/09/07 00:19:34;;;;;;;20.30;4.47;;;;;;;23.44;55.48;100099.56;5051289;28;20040;-79
2022/09/07 00:22:00;;;;;;;24.42;5.10;;;;;;;23.44;55.48;100099.56;5052021;28;20021;-80
2022/09/07 00:24:26;;;;;;;33.88;6.75;;;;;;;23.42;55.58;100101.94;5050487;28;20119;-79
2022/09/07 00:26:55;;;;;;;24.33;5.18;;;;;;;23.47;55.70;100104.28;5052118;28;20360;-79
2022/09/07 00:29:20;;;;;;;21.05;5.88;;;;;;;23.30;56.32;100106.06;5052059;28;20229;-79
2022/09/07 00:31:46;;;;;;;26.23;6.00;;;;;;;23.40;55.72;100104.34;5052354;28;20068;-80
2022/09/07 00:34:11;;;;;;;28.42;5.82;;;;;;;23.52;55.25;100095.47;5051168;28;20025;-80
2022/09/07 00:36:37;;;;;;;24.70;5.78;;;;;;;23.53;55.45;100102.63;5049862;28;20124;-80
2022/09/07 00:39:03;;;;;;;24.42;5.35;;;;;;;23.37;55.77;100099.63;5051344;28;20036;-80
2022/09/07 00:41:29;;;;;;;24.27;5.60;;;;;;;23.13;56.78;100096.69;5051105;28;20033;-80
2022/09/07 00:43:57;;;;;;;18.88;5.53;;;;;;;23.22;56.68;100088.63;5051935;28;20040;-79
2022/09/07 00:46:28;;;;;;;23.70;5.22;;;;;;;23.21;56.58;100095.41;5051974;28;20044;-80
2022/09/07 00:49:08;;;;;;;23.48;5.13;;;;;;;22.98;57.70;100089.69;5051942;28;20037;-79
2022/09/07 00:52:00;;;;;;;;;;;;;;;23.17;56.62;100094.66;5052391;28;20055;-79
2022/09/07 00:54:38;;;;;;;27.63;5.40;;;;;;;22.97;57.71;100088.09;5051829;28;19924;-80
2022/09/07 00:57:04;;;;;;;21.85;5.28;;;;;;;22.99;57.79;100094.06;5054465;28;20521;-79
2022/09/07 00:59:34;;;;;;;22.13;5.65;;;;;;;22.67;58.45;100091.50;5055724;28;20033;-80
2022/09/07 01:02:00;;;;;;;29.65;6.43;;;;;;;22.86;58.12;100088.19;5054374;28;20471;-80
2022/09/07 01:04:28;;;;;;;24.88;5.75;;;;;;;22.90;57.66;100088.19;5055829;28;20025;-80
2022/09/07 01:06:55;;;;;;;21.55;4.63;;;;;;;22.84;58.02;100093.38;5055130;28;20533;-80
2022/09/07 01:09:22;;;;;;;20.23;4.43;;;;;;;22.97;57.50;100099.22;5055725;28;20044;-79
2022/09/07 01:11:49;;;;;;;21.17;5.25;;;;;;;22.90;57.63;100102.09;5055766;28;20502;-79
2022/09/07 01:14:18;;;;;;;25.60;5.93;;;;;;;22.99;57.43;100091.25;5055336;28;20025;-80
2022/09/07 01:17:11;;;;;;;25.05;5.40;;;;;;;22.81;57.97;100087.81;5055554;28;20399;-79
2022/09/07 01:19:54;;;;;;;25.02;5.50;;;;;;;22.81;58.41;100085.03;5054202;28;20044;-80
2022/09/07 01:22:32;;;;;;;28.40;6.60;;;;;;;22.91;58.11;100087.75;5055598;28;20017;-80
2022/09/07 01:25:04;;;;;;;19.95;5.38;;;;;;;22.88;57.76;100085.00;5054938;28;20029;-80
2022/09/07 01:27:56;;;;;;;23.85;6.03;;;;;;;22.74;58.45;100079.53;5053835;28;20025;-80
2022/09/07 01:30:23;;;;;;;26.15;6.10;;;;;;;22.82;58.12;100083.81;5053636;28;20025;-80
2022/09/07 01:33:33;;;;;;;30.50;6.47;;;;;;;22.79;58.48;100085.44;5055268;28;20067;-80
2022/09/07 01:36:14;;;;;;;29.35;6.20;;;;;;;22.90;58.14;100083.41;5049072;28;20041;-80
2022/09/07 01:38:45;;;;;;;33.25;6.90;;;;;;;22.97;58.08;100088.09;5053516;28;20033;-80
2022/09/07 01:41:23;;;;;;;31.35;7.28;;;;;;;22.96;57.93;100075.34;5053789;28;20037;-80
2022/09/07 01:44:09;;;;;;;39.00;7.22;;;;;;;22.94;58.42;100080.56;5054823;28;20442;-80
2022/09/07 01:46:42;;;;;;;34.25;8.15;;;;;;;22.99;58.28;100063.41;5052271;28;20450;-80
2022/09/07 01:49:26;;;;;;;35.17;7.53;;;;;;;22.72;59.07;100066.00;5055042;28;20036;-80
2022/09/07 01:52:01;;;;;;;35.90;7.82;;;;;;;22.93;58.39;100059.47;5054596;28;20037;-80
2022/09/07 01:55:24;;;;;;;31.48;7.35;;;;;;;22.84;58.76;100062.72;5054244;28;20078;-80
2022/09/07 01:58:07;;;;;;;31.98;6.60;;;;;;;22.86;58.72;100051.19;5032539;28;20496;-80
2022/09/07 02:00:37;;;;;;;35.53;7.40;;;;;;;22.76;59.24;100057.66;5031699;28;20606;-80
2022/09/07 02:03:06;;;;;;;;;;;;;;;22.90;59.05;100054.75;5048555;28;20402;-80
2022/09/07 02:06:04;;;;;;;23.38;6.65;;;;;;;22.77;59.43;100050.88;5053118;28;19916;-80
2022/09/07 02:08:52;;;;;;;27.70;6.93;;;;;;;22.97;58.62;100049.91;5053536;28;20032;-80
2022/09/07 02:11:27;;;;;;;37.95;8.30;;;;;;;22.78;59.53;100058.00;5054334;28;20469;-80
2022/09/07 02:14:10;;;;;;;27.10;7.20;;;;;;;22.68;59.75;100066.06;5054241;28;20041;-80
2022/09/07 02:16:43;;;;;;;24.73;6.13;;;;;;;22.69;60.07;100044.56;5054421;28;20114;-80
2022/09/07 02:19:15;;;;;;;44.10;8.27;;;;;;;22.70;60.33;100051.72;5053549;28;20061;-80
2022/09/07 02:21:46;;;;;;;30.55;6.68;;;;;;;22.71;59.79;100048.50;5054481;28;20021;-80
2022/09/07 02:24:22;;;;;;;24.63;6.72;;;;;;;22.53;61.11;100053.47;5052806;28;20123;-81
2022/09/07 02:26:51;;;;;;;30.20;6.18;;;;;;;22.48;61.12;100045.53;5053990;28;20033;-79
2022/09/07 02:29:17;;;;;;;45.13;9.63;;;;;;;22.38;61.84;100047.22;5053467;28;20036;-79
2022/09/07 02:31:43;;;;;;;37.88;8.32;;;;;;;22.33;62.02;100041.28;5053992;28;20430;-79
2022/09/07 02:34:09;;;;;;;42.50;9.27;;;;;;;22.42;61.81;100038.84;5053938;28;20036;-80
2022/09/07 02:36:40;;;;;;;26.30;6.57;;;;;;;22.69;60.93;100039.00;5053537;28;20116;-80
2022/09/07 02:39:06;;;;;;;30.55;6.72;;;;;;;22.58;61.38;100030.72;5047520;28;20025;-80
2022/09/07 02:41:38;;;;;;;32.90;7.65;;;;;;;22.59;61.22;100028.75;5050827;28;20032;-79
2022/09/07 02:44:09;;;;;;;38.55;6.70;;;;;;;22.61;60.91;100027.13;5054025;28;20029;-81
2022/09/07 02:46:56;;;;;;;38.03;7.40;;;;;;;22.52;61.44;100028.78;5050733;28;20032;-80
2022/09/07 02:49:55;;;;;;;38.03;8.23;;;;;;;22.64;61.16;100022.72;5053797;28;20037;-79
2022/09/07 02:52:45;;;;;;;32.23;7.07;;;;;;;22.49;61.42;100018.50;5030594;28;20147;-79
2022/09/07 02:55:34;;;;;;;27.42;5.85;;;;;;;22.65;60.77;100019.53;5053279;28;20032;-79
2022/09/07 02:57:59;;;;;;;31.75;7.47;;;;;;;22.70;60.64;100019.09;5053229;28;20029;-80
2022/09/07 03:00:30;;;;;;;25.85;6.35;;;;;;;22.65;60.32;100013.97;5053411;28;20066;-81
2022/09/07 03:03:08;;;;;;;32.35;6.20;;;;;;;22.71;60.06;100020.66;5053501;28;20025;-79
2022/09/07 03:05:54;;;;;;;40.78;6.85;;;;;;;22.62;60.47;100025.94;5040686;28;20029;-81
2022/09/07 03:08:25;;;;;;;40.05;7.65;;;;;;;22.59;60.54;100020.38;5051639;28;20036;-81
2022/09/07 03:10:52;;;;;;;36.17;7.38;;;;;;;22.67;60.09;100014.34;5040041;28;20064;-81
2022/09/07 03:13:26;;;;;;;25.45;5.47;;;;;;;22.68;60.09;100015.16;5053436;28;20032;-80
2022/09/07 03:15:52;;;;;;;49.17;9.05;;;;;;;22.77;59.58;100012.66;5053135;28;20142;-80
2022/09/07 03:18:18;;;;;;;39.13;7.45;;;;;;;22.80;59.85;100013.81;5052515;28;20035;-80
2022/09/07 03:20:44;;;;;;;40.85;8.48;;;;;;;22.74;59.91;100013.47;5053508;28;20104;-81
2022/09/07 03:23:09;;;;;;;43.15;8.10;;;;;;;22.79;59.93;100009.47;5051754;28;20025;-79
2022/09/07 03:25:35;;;;;;;41.72;7.55;;;;;;;22.96;59.62;100019.66;5053075;28;20072;-81
2022/09/07 03:28:01;;;;;;;46.70;8.15;;;;;;;23.02;59.17;100020.00;5052840;28;20025;-81
2022/09/07 03:30:26;;;;;;;44.50;9.52;;;;;;;22.95;59.63;100020.84;5053181;28;20021;-81
2022/09/07 03:32:52;;;;;;;42.53;8.63;;;;;;;22.98;59.87;100020.84;5052634;28;20051;-81
2022/09/07 03:35:18;;;;;;;58.85;9.32;;;;;;;23.11;59.09;100012.72;5053148;28;20373;-81
2022/09/07 03:37:43;;;;;;;41.60;9.13;;;;;;;23.14;59.41;100008.31;5052872;28;20021;-81
2022/09/07 03:40:11;;;;;;;49.22;8.25;;;;;;;23.28;58.80;100019.28;5053034;28;20056;-81
2022/09/07 03:42:37;;;;;;;50.45;8.55;;;;;;;23.17;59.66;99997.13;5051395;28;20502;-81
2022/09/07 03:45:04;;;;;;;41.25;9.27;;;;;;;23.21;59.19;100002.66;5052611;28;20025;-81
2022/09/07 03:47:29;;;;;;;39.75;9.10;;;;;;;23.18;59.11;100001.47;5051673;28;20021;-80
2022/09/07 03:49:55;;;;;;;40.55;7.68;;;;;;;23.33;59.06;100004.09;5052886;28;20498;-81
2022/09/07 03:52:21;;;;;;;40.08;7.80;;;;;;;23.37;58.48;100000.06;5052793;28;20049;-80
2022/09/07 03:54:46;;;;;;;40.15;6.70;;;;;;;23.40;58.58;99998.44;5052143;28;20033;-81
2022/09/07 03:57:12;;;;;;;39.97;8.88;;;;;;;23.28;59.06;99996.22;5052326;28;20487;-81
2022/09/07 03:59:38;;;;;;;41.55;8.88;;;;;;;23.38;58.89;100000.84;5042287;28;20059;-79
2022/09/07 04:02:04;;;;;;;39.08;7.47;;;;;;;23.28;59.11;100002.56;5039173;28;20119;-80
2022/09/07 04:04:29;;;;;;;37.70;7.15;;;;;;;23.13;59.37;99999.16;5042226;28;20032;-81
2022/09/07 04:06:55;;;;;;;31.38;6.38;;;;;;;23.21;59.43;99991.50;5040403;28;20112;-81
2022/09/07 04:09:21;;;;;;;36.13;8.32;;;;;;;23.30;59.19;99988.22;5043318;28;20029;-80
2022/09/07 04:11:48;;;;;;;34.22;7.22;;;;;;;23.29;59.20;99995.00;5039215;28;20030;-80
2022/09/07 04:14:14;;;;;;;34.97;6.93;;;;;;;23.37;58.89;99993.69;5040259;28;20388;-81
2022/09/07 04:16:39;;;;;;;33.30;7.95;;;;;;;23.40;58.50;99995.63;5042562;28;20021;-82
2022/09/07 04:19:05;;;;;;;33.28;7.47;;;;;;;23.46;58.34;99991.19;5040104;28;20037;-81
2022/09/07 04:21:32;;;;;;;35.83;7.00;;;;;;;23.43;58.52;99992.03;5041905;28;20029;-82
2022/09/07 04:23:58;;;;;;;33.38;7.95;;;;;;;23.36;58.87;99994.91;5040406;28;20475;-82
2022/09/07 04:26:30;;;;;;;43.28;5.95;;;;;;;23.24;59.21;99994.25;5039747;28;20025;-82
2022/09/07 04:28:57;;;;;;;34.55;6.82;;;;;;;23.38;58.65;99993.28;5043628;28;20468;-77
2022/09/07 04:31:23;;;;;;;37.88;6.85;;;;;;;23.32;58.78;100005.31;5038898;28;20128;-79
2022/09/07 04:33:50;;;;;;;34.25;6.80;;;;;;;23.29;58.97;100001.38;5047566;28;20523;-78
2022/09/07 04:36:17;;;;;;;32.88;7.55;;;;;;;23.33;58.69;100001.31;5057368;28;20472;-79
2022/09/07 04:38:43;;;;;;;37.25;8.02;;;;;;;23.43;58.43;100003.97;5056763;28;20021;-79
2022/09/07 04:41:14;;;;;;;34.70;7.88;;;;;;;23.41;58.66;100008.38;5058559;28;20025;-79
2022/09/07 04:43:42;;;;;;;33.95;6.47;;;;;;;23.32;58.78;99996.94;5057358;28;20048;-78
2022/09/07 04:46:20;;;;;;;33.97;6.93;;;;;;;23.32;58.55;100000.53;5057645;28;20035;-80
2022/09/07 04:48:48;;;;;;;25.30;7.13;;;;;;;23.16;59.06;99994.75;5058733;28;20040;-78
2022/09/07 04:51:15;;;;;;;31.38;6.07;;;;;;;23.30;58.51;99993.78;5058603;28;20028;-79
2022/09/07 04:53:41;;;;;;;25.15;6.15;;;;;;;23.26;58.35;99988.25;5058430;28;20083;-79
2022/09/07 04:56:06;;;;;;;28.38;5.18;;;;;;;23.31;58.20;99989.78;5058686;28;20035;-78
2022/09/07 04:58:32;;;;;;;26.67;6.32;;;;;;;23.20;58.27;99978.75;5058015;28;20392;-78
2022/09/07 05:01:03;;;;;;;29.48;7.43;;;;;;;23.16;58.49;99978.03;5058825;28;20360;-79
2022/09/07 05:03:30;;;;;;;22.55;5.20;;;;;;;23.15;58.50;99982.03;5058153;28;20032;-79
2022/09/07 05:05:56;;;;;;;19.75;4.97;;;;;;;23.00;58.88;99973.06;5057165;28;20124;-79
2022/09/07 05:08:21;;;;;;;26.38;5.88;;;;;;;23.08;58.64;99977.31;5058798;28;20151;-79
2022/09/07 05:10:54;;;;;;;24.20;4.78;;;;;;;23.02;58.78;99967.84;5058245;28;20025;-79
2022/09/07 05:13:20;;;;;;;17.27;4.63;;;;;;;23.09;58.14;99973.34;5057634;28;20059;-78
2022/09/07 05:15:45;;;;;;;22.38;4.70;;;;;;;23.09;58.12;99970.53;5057424;28;20118;-78
2022/09/07 05:18:12;;;;;;;26.60;5.25;;;;;;;22.91;58.54;99967.19;5058545;28;20035;-80
2022/09/07 05:20:39;;;;;;;26.48;5.45;;;;;;;23.04;58.17;99965.44;5057188;28;20166;-78
2022/09/07 05:23:05;;;;;;;23.23;4.35;;;;;;;23.01;58.29;99973.84;5058105;28;20025;-79
2022/09/07 05:25:31;;;;;;;24.02;6.40;;;;;;;23.08;57.94;99974.53;5057131;28;20368;-79
2022/09/07 05:27:57;;;;;;;22.75;4.32;;;;;;;23.06;57.85;99978.97;5058529;28;20056;-78
2022/09/07 05:30:23;;;;;;;18.73;4.10;;;;;;;23.05;57.57;99974.56;5058339;28;20123;-78
2022/09/07 05:32:49;;;;;;;16.02;4.25;;;;;;;22.94;57.92;99972.72;5058221;28;20534;-78
2022/09/07 05:35:15;;;;;;;23.60;4.10;;;;;;;23.01;57.68;99971.84;5058515;28;20033;-78
2022/09/07 05:37:40;;;;;;;18.33;4.10;;;;;;;23.12;57.06;99982.84;5058374;28;20060;-78
2022/09/07 05:40:07;;;;;;;14.85;3.65;;;;;;;23.10;57.07;99974.13;5055920;28;20434;-79
2022/09/07 05:42:36;;;;;;;18.63;4.28;;;;;;;22.98;57.20;99979.03;5054555;28;20044;-78
2022/09/07 05:45:03;;;;;;;29.52;6.53;;;;;;;23.06;57.48;99976.19;5054781;28;20035;-79
2022/09/07 05:47:28;;;;;;;26.73;5.57;;;;;;;23.06;57.42;99979.75;5055091;28;20025;-80
2022/09/07 05:49:54;;;;;;;19.15;4.38;;;;;;;23.10;57.16;99983.28;5054863;28;20025;-79
2022/09/07 05:52:20;;;;;;;20.85;5.10;;;;;;;22.97;57.70;99976.66;5053444;28;20037;-79
2022/09/07 05:54:46;;;;;;;23.83;5.80;;;;;;;23.08;57.74;99977.31;5055019;28;20090;-81
2022/09/07 05:57:12;;;;;;;29.50;5.13;;;;;;;23.16;57.38;99981.59;5054324;28;20036;-82
2022/09/07 05:59:37;;;;;;;22.15;4.70;;;;;;;23.07;57.68;99984.09;5054451;28;20029;-79
2022/09/07 06:02:04;;;;;;;27.70;5.30;;;;;;;23.12;57.52;99991.19;5054515;28;20037;-81
2022/09/07 06:04:29;;;;;;;30.88;5.80;;;;;;;22.96;58.62;99997.34;5054318;28;20082;-81
2022/09/07 06:06:55;;;;;;;26.70;5.20;;;;;;;22.97;58.81;99993.38;5054783;28;20437;-80
2022/09/07 06:09:21;;;;;;;33.17;5.93;;;;;;;23.05;58.10;99989.31;5054573;28;20493;-79
2022/09/07 06:11:46;;;;;;;29.00;5.47;;;;;;;23.13;58.23;99987.25;5053267;28;20426;-79
2022/09/07 06:14:12;;;;;;;28.70;6.05;;;;;;;23.22;57.62;99988.31;5054220;28;20029;-81
2022/09/07 06:16:37;;;;;;;25.55;5.53;;;;;;;23.13;58.24;99985.25;5053185;28;20104;-79
2022/09/07 06:19:05;;;;;;;28.90;6.25;;;;;;;23.16;57.64;99984.41;5054596;28;20032;-81
2022/09/07 06:21:35;;;;;;;24.08;4.93;;;;;;;23.25;57.35;99984.66;5052972;28;20021;-79
2022/09/07 06:24:01;;;;;;;;;;;;;;;23.03;58.26;99997.28;5054914;28;20021;-80
2022/09/07 06:26:26;;;;;;;30.40;6.97;;;;;;;23.20;57.96;99990.72;5054443;28;20389;-79
2022/09/07 06:28:52;;;;;;;17.52;4.95;;;;;;;23.25;57.37;99997.81;5054238;28;20433;-80
2022/09/07 06:31:20;;;;;;;30.85;6.25;;;;;;;23.31;57.37;99995.38;5054010;28;20422;-81
2022/09/07 06:33:46;;;;;;;31.92;6.10;;;;;;;23.26;57.44;99989.03;5054394;28;20559;-81
2022/09/07 06:36:17;;;;;;;24.55;6.00;;;;;;;23.17;58.07;99991.53;5054414;28;20024;-82
2022/09/07 06:38:43;;;;;;;25.15;5.68;;;;;;;23.25;57.95;99987.47;5052533;28;20478;-79
2022/09/07 06:41:15;;;;;;;26.30;5.65;;;;;;;23.21;58.39;99988.72;5053676;28;20039;-79
2022/09/07 06:43:41;;;;;;;31.88;5.70;;;;;;;23.23;58.22;99984.31;5052832;28;20028;-79
2022/09/07 06:46:07;;;;;;;21.73;4.72;;;;;;;23.21;58.43;99986.72;5053772;28;20090;-80
2022/09/07 06:48:33;;;;;;;21.20;4.85;;;;;;;23.23;57.98;99987.09;5052224;28;20033;-80
2022/09/07 06:51:17;;;;;;;28.48;4.93;;;;;;;23.32;57.72;99986.59;5052217;28;20137;-80
2022/09/07 06:53:44;;;;;;;19.70;5.25;;;;;;;23.36;58.12;99990.13;5052780;28;20040;-80
2022/09/07 06:56:13;;;;;;;24.60;4.22;;;;;;;23.41;58.04;99986.84;5053384;28;20078;-80
2022/09/07 06:58:39;;;;;;;22.10;4.93;;;;;;;23.33;58.22;99988.16;5053905;28;20017;-77
2022/09/07 07:01:08;;;;;;;20.40;4.20;;;;;;;23.38;57.91;99989.69;5052351;28;20025;-80
2022/09/07 07:03:36;;;;;;;20.13;4.88;;;;;;;23.44;58.19;99990.81;5053801;28;20071;-77
2022/09/07 07:06:03;;;;;;;29.25;5.05;;;;;;;23.42;57.79;99996.78;5052565;28;20032;-77
2022/09/07 07:08:29;;;;;;;26.10;5.03;;;;;;;23.45;57.93;100000.75;5051375;28;20033;-77
2022/09/07 07:10:59;;;;;;;28.38;6.03;;;;;;;23.34;58.11;100005.66;5051219;28;20082;-77
2022/09/07 07:13:25;;;;;;;;;;;;;;;23.41;58.35;100011.16;5052559;28;20033;-77
2022/09/07 07:15:52;;;;;;;21.65;4.55;;;;;;;23.33;58.40;100009.66;5052202;28;20017;-78
2022/09/07 07:18:18;;;;;;;23.25;4.65;;;;;;;23.45;58.06;100017.50;5052046;28;20029;-76
2022/09/07 07:20:43;;;;;;;23.75;5.32;;;;;;;23.56;57.69;99997.81;5053073;28;20472;-78
2022/09/07 07:23:10;;;;;;;17.55;3.65;;;;;;;23.39;58.39;100008.00;5051992;28;20029;-77
2022/09/07 07:25:36;;;;;;;24.95;5.85;;;;;;;23.64;57.63;100011.28;5052743;28;20060;-76
2022/09/07 07:28:03;;;;;;;24.00;5.05;;;;;;;23.62;57.60;100010.91;5051855;28;20118;-77
2022/09/07 07:30:29;;;;;;;23.88;6.13;;;;;;;23.62;57.95;100018.50;5053276;28;20029;-78
2022/09/07 07:32:56;;;;;;;17.63;4.13;;;;;;;23.68;57.46;100014.81;5053236;28;20419;-78
2022/09/07 07:35:22;;;;;;;15.98;4.00;;;;;;;23.75;57.25;100016.72;5053131;28;20052;-76
2022/09/07 07:37:54;;;;;;;21.13;4.35;;;;;;;23.53;57.25;100016.19;5052446;28;20131;-77
2022/09/07 07:40:20;;;;;;;20.33;4.20;;;;;;;23.58;57.48;100018.53;5052994;28;20031;-79
2022/09/07 07:42:45;;;;;;;23.25;5.63;;;;;;;23.77;56.60;100017.88;5051617;28;20471;-77
2022/09/07 07:45:11;;;;;;;22.00;3.58;;;;;;;23.74;56.75;100015.94;5052800;28;20128;-77
2022/09/07 07:47:37;;;;;;;21.98;4.45;;;;;;;23.86;56.25;100010.97;5052918;28;20195;-80
2022/09/07 07:50:04;;;;;;;10.38;4.15;;;;;;;23.84;56.51;100011.41;5052903;28;20032;-78
2022/09/07 07:52:35;;;;;;;15.00;3.75;;;;;;;23.80;56.11;100017.03;5052653;28;20124;-80
2022/09/07 07:55:01;;;;;;;23.40;4.68;;;;;;;23.83;56.00;100012.63;5052661;28;20083;-78
2022/09/07 07:57:27;;;;;;;15.80;4.25;;;;;;;23.65;56.60;100015.63;5051461;28;20029;-81
2022/09/07 07:59:52;;;;;;;18.60;5.13;;;;;;;23.75;56.16;100014.72;5051532;28;20028;-81
2022/09/07 08:02:18;;;;;;;21.30;4.28;;;;;;;23.69;56.42;100015.59;5051194;28;20086;-81
2022/09/07 08:04:44;;;;;;;19.05;3.95;;;;;;;23.75;55.88;100014.72;5051931;28;20078;-79
2022/09/07 08:07:11;;;;;;;21.98;5.43;;;;;;;23.74;56.09;100013.13;5051311;28;20025;-81
2022/09/07 08:09:41;;;;;;;18.52;4.00;;;;;;;23.81;55.71;100023.41;5052638;28;20028;-78
2022/09/07 08:12:08;;;;;;;20.48;4.18;;;;;;;23.69;56.59;100019.19;5052660;28;20036;-78
2022/09/07 08:14:43;;;;;;;20.90;4.97;;;;;;;23.80;55.93;100033.78;5052502;28;20029;-78
2022/09/07 08:17:10;;;;;;;19.92;4.05;;;;;;;23.77;56.07;100019.88;5052549;28;20060;-80
2022/09/07 08:19:37;;;;;;;18.38;3.90;;;;;;;23.91;56.08;100022.47;5052740;28;20486;-78
2022/09/07 08:22:02;;;;;;;15.80;4.80;;;;;;;24.01;55.43;100026.28;5052466;28;20033;-78
2022/09/07 08:24:30;;;;;;;17.52;4.65;;;;;;;23.94;55.86;100021.59;5052342;28;20086;-78
2022/09/07 08:26:55;;;;;;;21.00;5.38;;;;;;;24.03;55.46;100029.44;5052313;28;20024;-78
2022/09/07 08:29:21;;;;;;;23.98;4.55;;;;;;;24.01;56.21;100023.50;5052476;28;20028;-78
2022/09/07 08:31:47;;;;;;;27.75;5.18;;;;;;;24.26;55.38;100032.28;5051069;28;20436;-79
2022/09/07 08:34:12;;;;;;;19.67;4.15;;;;;;;24.32;55.26;100036.19;5051324;28;20029;-78
2022/09/07 08:36:38;;;;;;;22.35;5.53;;;;;;;24.29;55.50;100027.84;5051869;28;20483;-78
2022/09/07 08:39:03;;;;;;;25.33;6.20;;;;;;;24.34;55.75;100033.00;5050061;28;20035;-78
2022/09/07 08:41:53;;;;;;;24.40;5.53;;;;;;;24.35;55.69;100035.34;5050248;28;20033;-79
2022/09/07 08:44:37;;;;;;;27.17;6.20;;;;;;;24.34;55.56;100044.16;5049165;28;20560;-78
2022/09/07 08:47:37;;;;;;;21.80;4.80;;;;;;;23.99;56.60;100043.47;5050489;28;20032;-80
2022/09/07 08:50:11;;;;;;;25.95;6.78;;;;;;;23.81;56.93;100051.31;5050455;28;20540;-80
2022/09/07 08:52:53;;;;;;;25.42;5.93;;;;;;;23.82;56.69;100043.72;5050287;28;20091;-78
2022/09/07 08:55:32;;;;;;;24.65;5.80;;;;;;;23.95;56.49;100047.50;5050593;28;20063;-81
2022/09/07 08:58:27;;;;;;;40.40;8.15;;;;;;;23.96;56.51;100054.69;5051016;28;20076;-79
2022/09/07 09:00:52;;;;;;;26.20;6.78;;;;;;;23.93;56.51;100044.34;5050936;28;20029;-80
2022/09/07 09:03:26;;;;;;;29.40;7.10;;;;;;;24.00;56.39;100041.47;5051326;28;20036;-81
2022/09/07 09:06:08;;;;;;;30.38;7.95;;;;;;;24.08;56.54;100037.34;5051881;28;20433;-80
2022/09/07 09:08:40;;;;;;;28.55;6.95;;;;;;;24.12;56.70;100038.09;5052148;28;20112;-79
2022/09/07 09:11:10;;;;;;;38.05;8.55;;;;;;;24.23;56.57;100044.28;5052108;28;20112;-79
2022/09/07 09:14:05;;;;;;;31.85;7.35;;;;;;;24.38;56.73;100032.94;5052103;28;20122;-81
2022/09/07 09:16:48;;;;;;;36.25;8.07;;;;;;;24.34;56.96;100044.16;5053723;28;20039;-81
2022/09/07 09:19:59;;;;;;;35.08;8.13;;;;;;;24.47;56.75;100047.13;5055892;28;20025;-80
2022/09/07 09:22:27;;;;;;;30.92;6.75;;;;;;;24.43;56.96;100043.63;5053481;28;20396;-79
2022/09/07 09:25:20;;;;;;;31.27;7.28;;;;;;;24.20;57.63;100045.16;5055893;28;20474;-80
2022/09/07 09:27:47;;;;;;;29.08;6.78;;;;;;;24.38;57.27;100055.25;5055668;28;20037;-80
2022/09/07 09:30:21;;;;;;;25.02;5.45;;;;;;;24.33;57.36;100059.31;5055600;28;20029;-81
2022/09/07 09:32:49;;;;;;;18.98;4.75;;;;;;;24.35;56.90;100054.91;5054926;28;20021;-78
2022/09/07 09:35:33;;;;;;;16.38;4.50;;;;;;;24.30;56.15;100058.13;5055468;28;20067;-78
2022/09/07 09:38:02;;;;;;;13.73;3.28;;;;;;;24.27;55.80;100056.19;5055415;28;20368;-79
2022/09/07 09:40:33;;;;;;;12.63;3.77;;;;;;;24.34;55.07;100061.69;5055403;28;20434;-79
2022/09/07 09:43:16;;;;;;;13.88;3.42;;;;;;;24.44;54.98;100062.72;5055116;28;20117;-81
2022/09/07 09:45:45;;;;;;;21.83;5.35;;;;;;;24.52;54.83;100066.19;5054903;28;20095;-78
2022/09/07 09:48:20;;;;;;;18.45;5.07;;;;;;;24.37;55.30;100062.06;5055273;28;20036;-78
2022/09/07 09:50:49;;;;;;;25.83;6.00;;;;;;;24.52;55.47;100069.00;5055326;28;20419;-78
2022/09/07 09:53:32;;;;;;;16.10;5.28;;;;;;;24.41;56.17;100054.41;5054876;28;20045;-80
2022/09/07 09:56:01;;;;;;;21.88;4.95;;;;;;;24.68;55.11;100057.94;5055089;28;20110;-78
2022/09/07 09:58:26;;;;;;;22.48;5.05;;;;;;;24.77;55.48;100052.59;5054662;28;20027;-79
2022/09/07 10:01:04;;;;;;;30.52;6.82;;;;;;;24.75;55.51;100051.44;5054979;28;20468;-79
2022/09/07 10:03:32;;;;;;;17.05;4.97;;;;;;;24.94;55.13;100061.88;5054933;28;20017;-79
2022/09/07 10:06:01;;;;;;;14.05;5.13;;;;;;;24.86;55.34;100061.22;5054617;28;20029;-79
2022/09/07 10:08:32;;;;;;;13.80;4.20;;;;;;;24.76;55.29;100051.00;5053534;28;20444;-79
2022/09/07 10:11:01;;;;;;;17.88;4.82;;;;;;;24.95;55.00;100060.66;5054852;28;20096;-79
2022/09/07 10:13:40;;;;;;;21.50;4.95;;;;;;;25.01;54.57;100058.94;5054774;28;20029;-80
2022/09/07 10:16:09;;;;;;;22.45;7.25;;;;;;;24.98;54.80;100062.59;5054854;28;20071;-79
2022/09/07 10:18:54;;;;;;;25.20;6.00;;;;;;;24.97;54.57;100052.63;5052414;28;20535;-79
2022/09/07 10:21:31;;;;;;;23.65;6.22;;;;;;;25.08;54.21;100060.84;5054492;28;20016;-77
2022/09/07 10:24:14;;;;;;;28.90;6.13;;;;;;;24.98;54.33;100067.38;5053383;28;20021;-81
2022/09/07 10:26:46;;;;;;;24.38;5.32;;;;;;;25.05;53.90;100056.09;5053923;28;20122;-80
2022/09/07 10:29:34;;;;;;;22.17;6.53;;;;;;;25.04;54.13;100051.75;5054531;28;20031;-79
2022/09/07 10:32:21;;;;;;;25.60;5.35;;;;;;;25.05;54.51;100059.69;5054656;28;20025;-79
2022/09/07 10:35:10;;;;;;;18.23;4.68;;;;;;;25.10;55.15;100050.03;5054207;28;20028;-82
2022/09/07 10:37:47;;;;;;;24.95;6.63;;;;;;;25.30;55.61;100050.81;5048747;28;20037;-80
2022/09/07 10:40:12;;;;;;;21.00;5.45;;;;;;;25.12;56.24;100048.38;5052970;28;20559;-81
2022/09/07 10:42:45;;;;;;;26.73;6.13;;;;;;;25.59;54.96;100044.63;5053986;28;20025;-80
2022/09/07 10:45:31;;;;;;;26.50;5.28;;;;;;;25.69;55.44;100040.81;5052192;28;20032;-79
2022/09/07 10:48:20;;;;;;;28.25;7.18;;;;;;;25.84;54.91;100047.69;5053001;28;20021;-81
2022/09/07 10:50:50;;;;;;;15.35;4.25;;;;;;;26.00;54.80;100046.97;5053032;28;20024;-80
2022/09/07 10:53:23;;;;;;;20.10;5.28;;;;;;;25.97;54.70;100042.22;5052549;28;20381;-80
2022/09/07 10:56:09;;;;;;;19.88;5.47;;;;;;;26.10;54.59;100048.72;5053391;28;20073;-79
2022/09/07 10:58:53;;;;;;;22.42;4.82;;;;;;;26.36;53.81;100049.69;5053300;28;20528;-78
2022/09/07 11:01:24;;;;;;;19.95;5.05;;;;;;;26.19;53.71;100050.91;5053917;28;20033;-79
2022/09/07 11:04:00;;;;;;;19.02;4.32;;;;;;;25.87;53.46;100046.06;5053952;28;20024;-78
2022/09/07 11:06:40;;;;;;;18.88;4.45;;;;;;;26.07;53.12;100057.19;5053717;28;20033;-78
2022/09/07 11:09:17;;;;;;;;;;;;;;;25.87;52.87;100058.03;5054294;28;20352;-79
2022/09/07 11:11:50;;;;;;;22.08;5.70;;;;;;;25.98;53.01;100052.97;5053464;28;19920;-78
2022/09/07 11:14:19;;;;;;;19.05;5.22;;;;;;;25.63;53.69;100057.34;5053273;28;20029;-80
2022/09/07 11:16:56;;;;;;;25.00;6.40;;;;;;;25.94;53.09;100045.91;5053433;28;20478;-78
2022/09/07 11:19:29;;;;;;;20.13;5.55;;;;;;;25.97;52.63;100050.63;5053593;28;20036;-79
2022/09/07 11:22:14;;;;;;;15.77;4.07;;;;;;;25.99;52.74;100042.56;5053483;28;20021;-79
2022/09/07 11:24:52;;;;;;;22.98;5.15;;;;;;;25.70;53.25;100040.41;5053481;28;20036;-78
2022/09/07 11:27:27;;;;;;;14.70;4.38;;;;;;;25.69;52.62;100035.22;5053216;28;20028;-78
2022/09/07 11:30:03;;;;;;;16.30;4.90;;;;;;;25.61;52.73;100042.19;5053341;28;20432;-78
2022/09/07 11:32:33;;;;;;;23.02;5.03;;;;;;;25.78;52.27;100035.47;5051987;28;20082;-80
2022/09/07 11:35:13;;;;;;;21.67;4.65;;;;;;;25.62;52.75;100041.00;5053179;28;20074;-80
2022/09/07 11:37:48;;;;;;;17.02;3.88;;;;;;;25.89;52.11;100038.81;5053249;28;20055;-81
2022/09/07 11:40:54;;;;;;;23.08;5.22;;;;;;;25.92;52.59;100040.75;5052489;28;20487;-79